Date,TemperatureHighF,TemperatureAvgF,TemperatureLowF,DewpointHighF,DewpointAvgF,DewpointLowF,HumidityHigh,HumidityAvg,HumidityLow,PressureMaxIn,PressureMinIn,WindSpeedMaxMPH,WindSpeedAvgMPH,GustSpeedMaxMPH,PrecipitationSumIn
2013-1-1,51.3,33.4,16.7,26.4,10.6,-3.5,62,40,20,29.42,29.19,25,8,30,0.15
2013-1-2,43.2,22.8,11.5,12.2,1.5,-7.1,56,40,22,29.55,29.40,17,7,24,0.00
2013-1-3,39.0,17.1,3.7,4.3,-10.3,-19.4,56,30,19,29.64,29.49,12,5,12,0.00
2013-1-4,42.1,30.2,11.8,21.8,15.5,1.3,70,55,40,29.47,29.29,21,7,21,0.00
2013-1-5,57.0,34.0,18.7,23.4,14.5,7.7,78,49,19,29.77,29.33,17,4,18,0.00
2013-1-6,59.4,37.1,21.0,30.7,22.9,14.6,79,60,26,29.72,29.43,13,4,17,0.00
2013-1-7,47.8,32.0,18.5,30.6,22.6,13.6,86,69,43,29.91,29.46,13,4,13,0.00
2013-1-8,61.2,37.3,18.7,28.0,24.2,13.8,91,63,23,29.87,29.75,18,6,18,0.00
2013-1-9,50.5,36.4,21.2,33.3,26.1,17.4,86,68,36,29.91,29.47,18,5,18,0.00
2013-1-10,57.4,43.1,31.3,26.6,22.3,17.4,65,46,24,30.03,29.50,26,10,26,0.28
2013-1-11,45.5,35.6,23.5,37.5,27.6,18.3,95,74,43,30.03,29.74,4,2,4,0.06
2013-1-12,48.4,42.7,39.2,44.6,41.0,37.9,96,94,86,29.73,29.62,5,1,5,0.07
2013-1-13,51.8,47.1,42.3,49.3,45.5,40.9,96,94,90,29.65,29.47,11,3,13,0.00
2013-1-14,78.1,54.5,41.4,51.6,41.4,25.9,91,65,29,29.75,29.35,13,7,13,0.01
2013-1-15,50.5,38.7,30.9,29.2,25.3,21.9,76,59,41,29.82,29.73,10,3,10,0.00
2013-1-16,35.2,32.8,30.2,33.0,29.0,21.4,97,87,60,29.75,29.31,6,2,6,0.05
2013-1-17,55.8,36.6,28.4,38.4,26.1,-0.6,99,69,28,29.60,29.32,13,4,13,0.28
2013-1-18,37.2,22.5,12.7,6.2,-5.7,-16.4,67,31,18,29.95,29.58,17,7,17,0.11
2013-1-19,60.4,40.2,22.8,32.5,20.3,3.1,75,47,22,29.88,29.37,20,9,20,0.04
2013-1-20,65.8,44.0,27.5,33.9,19.8,2.0,74,40,21,29.41,29.00,30,13,42,1.52
2013-1-21,61.7,31.2,19.4,26.8,4.0,-8.1,75,34,19,29.92,29.41,17,5,21,0.52
2013-1-22,27.7,21.2,14.2,17.8,0.1,-12.2,79,42,24,30.06,29.74,18,7,24,0.00
2013-1-23,16.3,11.6,6.1,-3.6,-18.8,-25.0,46,24,19,30.13,30.05,21,8,22,0.00
2013-1-24,18.3,12.1,1.8,-16.7,-19.8,-25.6,27,22,18,30.19,30.03,23,12,27,0.00
2013-1-25,10.9,9.5,8.8,-17.9,-20.0,-22.7,27,24,20,30.26,30.19,19,9,21,0.00
2013-1-26,25.5,19.4,12.6,5.8,-6.5,-17.5,68,33,19,30.21,30.00,24,9,25,0.00
2013-1-27,29.8,21.2,14.5,-3.0,-7.4,-13.2,45,29,18,30.47,30.21,20,8,20,0.00
2013-1-28,33.6,25.3,16.2,23.1,4.5,-15.2,82,45,21,30.45,30.03,8,2,8,0.00
2013-1-29,36.3,31.2,25.5,29.7,24.9,20.7,84,78,69,30.19,30.03,8,3,8,0.07
2013-1-30,60.8,51.4,34.0,56.2,48.1,29.9,95,89,82,30.15,29.45,22,8,24,0.08
2013-1-31,61.7,56.0,45.9,57.8,50.2,28.9,92,82,46,29.43,28.92,31,17,36,0.20
2013-2-8,32.9,29.0,21.4,29.4,26.1,17.9,92,89,84,30.19,29.67,36,18,44,0.01
2013-2-9,22.1,18.7,15.4,18.0,12.0,-1.2,87,75,46,30.21,29.62,40,16,40,0.00
2013-2-10,41.0,22.7,12.6,6.4,-3.4,-11.9,47,32,20,30.44,30.22,18,7,21,0.00
2013-2-11,39.4,39.3,39.2,36.1,36.1,36.0,88,88,88,29.95,29.93,10,7,12,0.12
2013-2-12,48.0,45.5,42.8,28.7,27.6,26.4,56,49,46,29.71,29.69,20,14,24,0.20
2013-2-13,47.8,36.5,25.5,33.0,22.8,16.2,74,59,39,29.91,29.74,11,2,11,0.00
2013-2-14,46.4,36.4,27.5,24.5,20.4,16.4,75,53,33,30.03,29.74,11,4,14,0.00
2013-2-15,53.8,37.3,23.7,33.9,27.2,16.8,82,68,43,30.04,29.93,13,4,13,0.00
2013-2-16,36.5,33.4,27.9,28.7,27.3,21.8,83,78,61,29.99,29.93,11,4,14,0.00
2013-2-17,33.8,31.3,18.1,28.3,22.4,-8.8,80,72,28,29.99,29.38,35,7,35,0.02
2013-2-18,33.3,23.9,15.1,-2.4,-5.7,-8.8,37,27,19,30.18,29.66,24,12,36,0.00
2013-2-19,24.8,24.8,24.8,-6.8,-6.8,-6.8,24,24,24,30.18,30.18,4,4,10,0.00
2013-2-20,41.4,33.9,27.7,38.6,15.3,6.9,90,48,31,29.80,29.56,24,11,27,0.01
2013-2-21,32.4,27.4,25.2,11.4,8.3,3.3,51,44,33,30.03,29.79,20,10,27,0.00
2013-2-22,32.9,32.0,31.6,23.2,22.4,22.0,68,67,66,30.40,30.39,2,0,2,0.00
2013-2-23,36.9,33.0,31.5,26.6,23.7,22.0,71,68,66,30.39,30.30,2,0,2,0.00
2013-2-24,37.0,32.6,30.6,32.7,29.1,27.2,87,87,84,29.93,29.75,14,5,17,0.08
2013-2-25,43.0,34.3,27.5,30.6,26.7,21.1,87,74,53,30.29,29.94,8,1,11,0.21
2013-2-26,48.4,37.0,26.4,34.8,27.9,20.7,85,71,48,30.40,30.30,9,2,11,0.00
2013-2-27,41.5,40.6,39.2,39.1,38.0,36.2,91,90,89,29.77,29.58,17,9,17,0.41
2013-2-28,51.1,40.9,35.1,38.9,34.3,30.7,92,78,55,29.69,29.56,14,4,15,0.01
2013-3-1,43.3,38.3,35.6,30.6,28.6,25.3,78,68,56,29.72,29.57,12,5,14,0.00
2013-3-2,49.1,39.6,30.9,30.1,26.3,22.3,72,59,46,29.71,29.64,11,4,12,0.00
2013-3-3,40.6,34.7,32.7,31.3,25.3,23.5,74,68,62,29.68,29.65,9,4,11,0.00
2013-3-6,41.7,38.8,36.1,34.7,31.3,26.2,85,74,64,30.19,30.11,22,11,22,0.07
2013-3-7,37.6,33.9,32.0,29.3,27.8,25.6,85,78,63,30.14,30.06,32,16,32,0.05
2013-3-8,41.7,35.1,30.4,31.5,27.3,23.2,87,75,53,30.20,30.00,20,11,20,0.06
2013-3-9,42.4,36.4,26.6,29.7,24.1,19.5,76,61,50,30.40,30.20,21,6,21,0.02
2013-3-10,45.7,35.7,26.4,32.8,27.1,20.8,84,71,55,30.47,30.37,9,3,9,0.00
2013-3-11,56.3,44.1,36.0,37.6,33.4,28.5,82,67,43,30.38,30.20,11,6,11,0.00
2013-3-12,52.7,48.3,41.4,48.8,43.8,36.6,90,85,76,30.20,29.76,19,8,20,0.15
2013-3-13,52.2,50.6,45.7,49.3,47.6,42.0,91,90,87,29.78,29.75,10,4,13,0.00
2013-3-27,57.7,44.6,31.5,32.3,22.9,18.2,69,44,24,29.91,29.76,18,7,18,0.00
2013-3-28,50.5,44.1,38.3,34.4,31.9,28.5,85,64,43,30.05,29.91,11,6,11,0.01
2013-3-29,60.6,47.6,35.1,38.3,31.4,26.3,72,55,31,30.08,30.00,11,4,11,0.00
2013-3-30,59.4,47.3,32.9,32.2,28.5,22.4,70,50,26,30.14,30.04,12,4,12,0.00
2013-3-31,62.2,48.8,26.8,39.1,27.3,19.6,78,49,22,30.17,29.84,15,6,15,0.01
2013-4-1,65.5,49.9,36.3,46.6,37.8,7.0,94,67,28,29.81,29.52,16,8,16,0.13
2013-4-2,44.2,36.4,29.7,15.5,7.4,0.2,48,30,21,29.96,29.82,24,11,24,0.00
2013-4-3,51.3,39.6,30.4,15.7,9.2,4.1,48,30,19,30.18,29.95,26,11,29,0.00
2013-4-4,63.3,44.8,28.8,26.8,15.8,6.2,55,33,16,30.33,30.07,18,7,20,0.00
2013-4-5,63.9,49.7,39.9,30.5,25.8,14.8,64,42,17,30.07,29.65,18,8,21,0.00
2013-4-6,53.1,38.8,29.8,23.0,8.7,-2.2,53,30,19,30.39,29.91,28,9,28,0.00
2013-4-7,57.4,44.5,26.2,40.3,26.7,12.7,75,52,25,30.39,30.03,28,8,30,0.00
2013-4-8,68.5,53.8,44.1,47.6,39.3,31.9,86,61,26,30.16,29.98,11,6,17,0.00
2013-4-9,74.1,54.8,45.3,50.9,43.8,38.3,90,68,35,30.14,29.89,17,5,19,0.06
2013-4-10,66.9,51.7,45.9,48.0,44.6,41.1,91,78,49,30.07,29.91,11,3,11,0.19
2013-4-11,48.2,46.6,45.9,45.4,44.6,43.7,93,92,90,29.95,29.88,4,2,6,0.06
2013-4-12,45.1,39.6,37.9,39.1,35.4,29.4,97,85,57,30.25,29.85,15,8,20,0.35
2013-4-13,54.5,43.0,36.0,40.9,36.7,33.0,97,79,55,29.97,29.80,21,6,21,0.04
2013-4-14,62.1,49.2,40.6,44.8,33.5,24.7,88,58,31,30.25,29.95,17,5,22,0.00
2013-4-15,61.2,50.8,32.7,40.7,34.7,27.5,82,56,34,30.45,30.26,13,6,14,0.00
2013-4-16,45.0,45.0,45.0,37.5,37.5,37.5,75,75,75,30.44,30.44,4,4,6,0.00
2013-4-19,66.2,66.0,66.0,61.7,61.7,61.6,86,86,85,29.91,29.90,13,10,21,0.00
2013-4-20,66.6,57.1,46.4,62.8,41.4,22.7,92,60,30,30.45,29.82,20,9,21,0.30
2013-4-21,56.5,45.1,33.3,29.1,21.3,14.0,75,41,22,30.95,30.45,17,6,22,0.00
2013-4-22,53.4,43.1,31.1,38.0,31.4,25.5,85,65,37,31.06,30.88,17,6,21,0.00
2013-4-23,43.2,42.0,40.6,41.9,38.2,31.6,98,87,70,31.33,30.51,12,6,18,0.06
2013-4-25,56.5,49.3,43.0,39.2,35.9,32.5,74,61,40,30.53,30.42,4,1,4,0.19
2013-4-26,46.9,43.1,40.6,37.3,35.6,34.4,82,75,62,30.57,30.53,5,2,6,0.00
2013-5-5,69.8,51.9,36.3,44.1,39.1,31.7,93,66,33,30.61,30.51,14,3,14,0.00
2013-5-6,73.2,54.0,36.1,49.2,43.8,32.6,93,72,41,30.56,30.41,9,2,9,0.00
2013-5-7,83.8,65.4,42.1,60.2,51.7,40.8,95,65,41,30.44,30.34,12,4,12,0.00
2013-5-8,78.6,64.3,51.8,62.6,56.9,49.5,93,78,56,30.48,30.31,11,4,11,0.02
2013-5-9,72.7,59.3,55.6,61.0,56.4,54.2,97,90,64,30.32,30.14,5,2,5,0.40
2013-5-10,56.1,55.6,55.2,55.3,54.8,54.4,98,97,96,30.15,30.14,4,2,4,0.00
2013-5-11,77.5,68.4,62.6,62.4,60.4,58.5,87,76,58,30.01,29.94,22,7,23,0.01
2013-5-12,82.2,64.4,50.7,62.8,52.4,29.6,92,69,33,30.04,29.79,18,4,24,0.07
2013-5-13,71.1,55.3,43.7,40.5,30.3,22.4,66,41,17,30.29,30.05,17,6,19,0.00
2013-5-14,68.9,53.4,41.9,37.1,29.7,21.7,70,44,18,30.31,30.21,14,5,17,0.00
2013-5-15,45.9,42.4,39.4,35.9,33.0,31.4,82,70,57,30.31,30.29,4,1,4,0.00
2013-5-21,52.7,52.3,52.0,51.3,50.7,50.3,95,94,94,30.29,30.23,10,6,11,0.00
2013-5-22,60.1,55.3,51.3,56.2,52.4,49.9,96,90,79,30.34,30.12,13,3,16,0.37
2013-5-23,82.4,65.1,53.6,69.1,59.6,51.9,95,84,61,30.19,30.05,12,4,21,0.02
2013-5-24,74.5,65.1,53.4,68.0,61.8,52.2,96,89,77,30.07,29.89,15,4,16,0.50
2013-5-25,53.8,49.8,42.8,52.0,48.1,38.6,99,94,85,30.07,29.93,16,8,17,0.39
2013-5-26,62.8,50.2,40.8,44.3,40.1,37.9,95,71,41,30.33,29.93,21,8,21,0.06
2013-5-27,81.3,62.1,40.3,48.8,37.3,27.7,91,48,16,30.38,30.30,14,6,21,0.00
2013-5-30,72.3,70.2,68.0,64.8,64.2,63.5,86,81,77,30.29,30.26,0,0,0,0.00
2013-5-31,79.5,76.2,65.3,70.6,68.7,62.0,91,78,74,30.32,30.26,3,1,4,0.00
2013-6-1,104.5,85.1,79.0,70.6,69.3,64.5,74,62,31,30.32,29.88,11,3,18,0.00
2013-6-2,97.5,84.7,72.7,70.3,67.3,64.4,78,58,36,29.93,29.75,18,6,27,0.00
2013-6-3,87.6,72.5,59.9,68.4,63.4,48.1,93,74,52,29.92,29.81,10,3,12,0.35
2013-6-4,76.8,64.6,51.6,49.8,45.2,41.3,76,52,29,30.16,29.87,17,5,20,0.00
2013-6-5,78.8,65.6,52.2,51.0,46.5,38.3,76,53,26,30.25,30.15,14,4,14,0.00
2013-6-6,76.1,65.5,52.7,56.8,52.1,48.1,86,63,46,30.26,30.18,12,3,13,0.00